Time;durP1;ratioP1;P1;durP2;ratioP2;P2;SDS_P1;SDS_P2;PMS_P1;PMS_P2;Temp;Humidity;BMP_temperature;BMP_pressure;BME280_temperature;BME280_humidity;BME280_pressure;Samples;Min_cycle;Max_cycle;Signal;HPM_P1;HPM_P2
2022/04/20 00:01:51;;;;;;;;;;;;;;;9.84;100.00;100676.13;5088746;28;19923;-75
2022/04/20 00:04:18;;;;;;;;;;;;;;;9.83;100.00;100682.22;5109872;28;20594;-74
2022/04/20 00:06:43;;;;;;;;;;;;;;;9.83;100.00;100676.06;5089515;28;19955;-75
2022/04/20 00:09:08;;;;;;;;;;;;;;;9.84;100.00;100688.41;5093412;28;19966;-75
2022/04/20 00:11:34;;;;;;;;;;;;;;;9.81;100.00;100685.66;5075464;28;20334;-76
2022/04/20 00:14:00;;;;;;;;;;;;;;;9.75;100.00;100686.31;5077244;28;20034;-74
2022/04/20 00:16:25;;;;;;;;;;;;;;;9.75;100.00;100678.41;5090778;28;19975;-75
2022/04/20 00:18:50;;;;;;;;;;;;;;;9.75;100.00;100686.31;5092940;28;19923;-75
2022/04/20 00:21:16;;;;;;;;;;;;;;;9.73;100.00;100695.00;5078014;28;20288;-75
2022/04/20 00:23:41;;;;;;;;;;;;;;;9.67;100.00;100690.41;5093341;28;19920;-75
2022/04/20 00:26:06;;;;;;;;;;;;;;;9.63;100.00;100694.66;5087015;28;20560;-76
2022/04/20 00:28:32;;;;;;;;;;;;;;;9.56;100.00;100684.75;5089511;28;19932;-75
2022/04/20 00:30:57;;;;;;;;;;;;;;;9.60;100.00;100691.91;5084829;28;19927;-77
2022/04/20 00:33:23;;;;;;;;;;;;;;;9.62;100.00;100702.50;5110836;28;19931;-77
2022/04/20 00:35:50;;;;;;;;;;;;;;;9.56;100.00;100705.78;5087880;28;19968;-76
2022/04/20 00:38:17;;;;;;;;;;;;;;;9.51;100.00;100708.22;5104219;28;19977;-76
2022/04/20 00:40:43;;;;;;;;;;;;;;;9.45;100.00;100699.22;5083971;28;20010;-77
2022/04/20 00:43:10;;;;;;;;;;;;;;;9.36;100.00;100698.88;5094877;28;19923;-77
2022/04/20 00:45:35;;;;;;;;;;;;;;;9.31;100.00;100696.94;5114549;28;19926;-77
2022/04/20 00:48:02;;;;;;;;;;;;;;;9.30;100.00;100703.03;5113949;28;19919;-75
2022/04/20 00:50:28;;;;;;;;;;;;;;;9.25;100.00;100688.84;5096973;28;20375;-75
2022/04/20 00:52:53;;;;;;;;;;;;;;;9.28;100.00;100693.31;5096853;28;19980;-74
2022/04/20 00:55:18;;;;;;;;;;;;;;;9.32;100.00;100695.22;5086354;27;19923;-75
2022/04/20 00:57:44;;;;;;;;;;;;;;;9.33;100.00;100704.91;5084247;28;19920;-76
2022/04/20 01:00:09;;;;;;;;;;;;;;;9.31;100.00;100706.56;5093203;28;20384;-76
2022/04/20 01:02:34;;;;;;;;;;;;;;;9.27;100.00;100702.91;5107774;27;19969;-76
2022/04/20 01:05:02;;;;;;;;;;;;;;;9.23;100.00;100703.66;5116247;27;19971;-76
2022/04/20 01:07:33;;;;;;;;;;;;;;;9.18;100.00;100706.91;5080923;28;19920;-75
2022/04/20 01:09:59;;;;;;;;;;;;;;;9.13;100.00;100707.63;5114630;28;20005;-75
2022/04/20 01:12:24;;;;;;;;;;;;;;;9.13;100.00;100702.38;5089287;28;20376;-76
2022/04/20 01:14:50;;;;;;;;;;;;;;;9.08;100.00;100703.03;5087352;28;19927;-76
2022/04/20 01:17:15;;;;;;;;;;;;;;;8.98;100.00;100702.69;5076501;28;20011;-74
2022/04/20 01:19:41;;;;;;;;;;;;;;;9.01;100.00;100698.38;5103424;27;20010;-76
2022/04/20 01:22:08;;;;;;;;;;;;;;;8.96;100.00;100700.81;5088924;28;20383;-75
2022/04/20 01:24:36;;;;;;;;;;;;;;;8.92;100.00;100693.66;5083371;27;19955;-76
2022/04/20 01:27:02;;;;;;;;;;;;;;;8.89;100.00;100698.78;5101284;28;19919;-76
2022/04/20 01:29:28;;;;;;;;;;;;;;;8.80;100.00;100686.19;5096342;28;19979;-76
2022/04/20 01:31:53;;;;;;;;;;;;;;;8.72;100.00;100690.22;5114498;28;19919;-77
2022/04/20 01:34:19;;;;;;;;;;;;;;;8.69;100.00;100695.34;5095585;28;19920;-75
2022/04/20 01:36:44;;;;;;;;;;;;;;;8.65;100.00;100691.69;5103570;28;19923;-75
2022/04/20 01:39:11;;;;;;;;;;;;;;;8.60;100.00;100683.63;5113581;28;20382;-75
2022/04/20 01:41:36;;;;;;;;;;;;;;;8.54;100.00;100687.72;5085611;28;19916;-76
2022/04/20 01:44:03;;;;;;;;;;;;;;;8.52;100.00;100681.53;5089936;28;20280;-76
2022/04/20 01:46:28;;;;;;;;;;;;;;;8.49;100.00;100676.16;5106497;28;19920;-76
2022/04/20 01:48:53;;;;;;;;;;;;;;;8.46;100.00;100679.53;5113215;28;19927;-75
2022/04/20 01:54:04;;;;;;;;;;;;;;;8.44;100.00;100665.47;5107146;27;19943;-76
2022/04/20 01:56:29;;;;;;;;;;;;;;;8.39;100.00;100669.56;5087540;28;19920;-76
2022/04/20 01:58:54;;;;;;;;;;;;;;;8.34;100.00;100666.75;5095417;28;19969;-75
2022/04/20 02:04:04;;;;;;;;;;;;;;;8.22;100.00;100658.41;5113788;28;20025;-75
2022/04/20 02:06:29;;;;;;;;;;;;;;;8.19;100.00;100653.91;5102077;28;20029;-76
2022/04/20 02:08:54;;;;;;;;;;;;;;;8.18;100.00;100649.47;5057707;28;20419;-76
2022/04/20 02:11:19;;;;;;;;;;;;;;;8.20;100.00;100646.94;5092409;28;20347;-76
2022/04/20 02:13:45;;;;;;;;;;;;;;;8.13;100.00;100644.91;5074661;28;19938;-76
2022/04/20 02:16:10;;;;;;;;;;;;;;;8.13;100.00;100643.16;5091600;28;19946;-76
2022/04/20 02:18:36;;;;;;;;;;;;;;;8.07;100.00;100646.41;5084185;28;20391;-75
2022/04/20 02:21:01;;;;;;;;;;;;;;;8.04;100.00;100637.53;5090504;28;20378;-76
2022/04/20 02:23:26;;;;;;;;;;;;;;;8.02;100.00;100637.44;5094956;28;19927;-75
2022/04/20 02:25:52;;;;;;;;;;;;;;;7.98;100.00;100638.13;5103993;28;20268;-75
2022/04/20 02:28:18;;;;;;;;;;;;;;;7.95;100.00;100637.13;5095557;28;20367;-75
2022/04/20 02:30:43;;;;;;;;;;;;;;;7.91;100.00;100637.00;5094065;28;19919;-76
2022/04/20 02:33:08;;;;;;;;;;;;;;;7.90;100.00;100639.53;5098571;27;19922;-75
2022/04/20 02:35:35;;;;;;;;;;;;;;;7.82;100.00;100635.72;5114542;27;19919;-75
2022/04/20 02:38:01;;;;;;;;;;;;;;;7.79;100.00;100635.56;5093059;28;20014;-75
2022/04/20 02:40:26;;;;;;;;;;;;;;;7.71;100.00;100636.13;5088270;28;20465;-75
2022/04/20 02:42:51;;;;;;;;;;;;;;;7.73;100.00;100625.69;5112537;28;19919;-75
2022/04/20 02:45:16;;;;;;;;;;;;;;;7.68;100.00;100625.50;5113701;27;20382;-76
2022/04/20 02:47:42;;;;;;;;;;;;;;;7.67;100.00;100626.31;5094265;28;20376;-75
2022/04/20 02:50:08;;;;;;;;;;;;;;;7.66;100.00;100621.94;5107988;27;20030;-74
2022/04/20 02:52:33;;;;;;;;;;;;;;;7.62;100.00;100617.38;5113824;27;19927;-74
2022/04/20 02:54:59;;;;;;;;;;;;;;;7.60;100.00;100623.34;5090517;28;19927;-75
2022/04/20 02:57:25;;;;;;;;;;;;;;;7.58;100.00;100631.16;5094500;28;19964;-75
2022/04/20 02:59:51;;;;;;;;;;;;;;;7.51;100.00;100639.59;5112440;28;20015;-74
2022/04/20 03:02:16;;;;;;;;;;;;;;;7.52;100.00;100638.78;5093776;28;19992;-73
2022/04/20 03:04:41;;;;;;;;;;;;;;;7.55;100.00;100646.72;5095701;28;19916;-75
2022/04/20 03:07:07;;;;;;;;;;;;;;;7.51;100.00;100643.09;5076862;28;20001;-75
2022/04/20 03:09:32;;;;;;;;;;;;;;;7.48;100.00;100661.28;5079161;28;19946;-73
2022/04/20 03:11:58;;;;;;;;;;;;;;;7.41;100.00;100659.25;5093877;28;19916;-74
2022/04/20 03:14:23;;;;;;;;;;;;;;;7.38;100.00;100659.09;5088517;28;19967;-75
2022/04/20 03:16:50;;;;;;;;;;;;;;;7.33;100.00;100663.22;5093358;28;19976;-75
2022/04/20 03:19:15;;;;;;;;;;;;;;;7.32;100.00;100662.31;5094683;28;19927;-75
2022/04/20 03:21:40;;;;;;;;;;;;;;;7.28;100.00;100668.22;5094115;28;19926;-77
2022/04/20 03:24:06;;;;;;;;;;;;;;;7.28;100.00;100665.63;5084438;28;20101;-77
2022/04/20 03:26:32;;;;;;;;;;;;;;;7.22;100.00;100662.72;5057845;28;20420;-77
2022/04/20 03:28:57;;;;;;;;;;;;;;;7.22;100.00;100678.44;5065664;28;19928;-78
2022/04/20 03:31:23;;;;;;;;;;;;;;;7.18;100.00;100681.75;5086381;28;19916;-77
2022/04/20 03:33:50;;;;;;;;;;;;;;;7.27;100.00;100679.56;5112266;28;19927;-77
2022/04/20 03:36:15;;;;;;;;;;;;;;;7.21;100.00;100688.81;5090822;28;19926;-77
2022/04/20 03:38:41;;;;;;;;;;;;;;;7.17;100.00;100701.78;5065412;28;20010;-74
2022/04/20 03:41:06;;;;;;;;;;;;;;;7.15;100.00;100706.06;5090224;28;20360;-77
2022/04/20 03:43:32;;;;;;;;;;;;;;;7.12;100.00;100702.41;5087840;28;19920;-76
2022/04/20 03:45:58;;;;;;;;;;;;;;;7.06;100.00;100703.00;5092279;28;20368;-76
2022/04/20 03:48:23;;;;;;;;;;;;;;;6.97;100.00;100699.94;5112391;28;19916;-75
2022/04/20 03:50:49;;;;;;;;;;;;;;;6.93;100.00;100698.91;5109950;28;19931;-77
2022/04/20 03:53:15;;;;;;;;;;;;;;;6.91;100.00;100699.66;5100623;28;20472;-76
2022/04/20 03:55:40;;;;;;;;;;;;;;;6.86;100.00;100698.53;5093710;28;20574;-76
2022/04/20 03:58:06;;;;;;;;;;;;;;;6.83;100.00;100699.28;5087425;28;19924;-76
2022/04/20 04:00:31;;;;;;;;;;;;;;;6.82;100.00;100701.00;5111217;28;19919;-76
2022/04/20 04:02:57;;;;;;;;;;;;;;;6.80;100.00;100707.88;5083806;28;19920;-75
2022/04/20 04:05:22;;;;;;;;;;;;;;;6.78;100.00;100709.50;5077512;28;19927;-76
2022/04/20 04:07:48;;;;;;;;;;;;;;;6.88;100.00;100717.81;5094207;28;20401;-77
2022/04/20 04:10:13;;;;;;;;;;;;;;;6.83;100.00;100728.94;5107827;28;19919;-76
2022/04/20 04:12:38;;;;;;;;;;;;;;;6.87;100.00;100731.72;5082946;28;19928;-76
2022/04/20 04:15:05;;;;;;;;;;;;;;;6.88;100.00;100738.75;5079192;28;19916;-76
2022/04/20 04:17:31;;;;;;;;;;;;;;;6.89;100.00;100748.41;5114690;28;19922;-78
2022/04/20 04:19:56;;;;;;;;;;;;;;;6.94;100.00;100758.28;5109170;27;20014;-78
2022/04/20 04:22:21;;;;;;;;;;;;;;;6.94;100.00;100765.25;5073668;27;19959;-77
2022/04/20 04:24:47;;;;;;;;;;;;;;;6.90;100.00;100769.44;5092850;28;20360;-78
2022/04/20 04:27:13;;;;;;;;;;;;;;;6.91;100.00;100775.56;5100475;28;20018;-78
2022/04/20 04:29:39;;;;;;;;;;;;;;;6.99;100.00;100782.06;5093185;28;19967;-78
2022/04/20 04:32:05;;;;;;;;;;;;;;;7.12;100.00;100796.69;5063901;28;19990;-78
2022/04/20 04:34:33;;;;;;;;;;;;;;;7.17;100.00;100803.91;5074139;28;19928;-76
2022/04/20 04:36:58;;;;;;;;;;;;;;;7.17;100.00;100821.34;5090383;28;19961;-77
2022/04/20 04:39:28;;;;;;;;;;;;;;;7.14;100.00;100821.22;5074876;28;19916;-77
2022/04/20 04:41:53;;;;;;;;;;;;;;;7.11;100.00;100827.19;5089201;28;20399;-76
2022/04/20 04:44:19;;;;;;;;;;;;;;;7.06;100.00;100835.66;5092460;28;20017;-77
2022/04/20 04:49:29;;;;;;;;;;;;;;;7.03;100.00;100835.50;5081223;28;19927;-75
2022/04/20 04:51:55;;;;;;;;;;;;;;;7.01;100.00;100845.91;5095431;28;19920;-77
2022/04/20 04:54:21;;;;;;;;;;;;;;;7.06;100.00;100847.00;5077689;28;19923;-77
2022/04/20 04:56:48;;;;;;;;;;;;;;;7.11;100.00;100848.13;5087004;28;19921;-78
2022/04/20 04:59:13;;;;;;;;;;;;;;;7.46;100.00;100851.59;5079998;28;19922;-76
2022/04/20 05:01:39;;;;;;;;;;;;;;;7.82;100.00;100871.63;5067124;28;20062;-77
2022/04/20 05:04:05;;;;;;;;;;;;;;;8.03;100.00;100876.97;5082736;28;20462;-77
2022/04/20 05:06:30;;;;;;;;;;;;;;;8.43;100.00;100900.72;5095561;28;19916;-76
2022/04/20 05:08:55;;;;;;;;;;;;;;;8.65;100.00;100917.44;5092511;28;19923;-76
2022/04/20 05:11:21;;;;;;;;;;;;;;;8.84;100.00;100941.91;5088758;28;19982;-77
2022/04/20 05:13:47;;;;;;;;;;;;;;;9.01;100.00;100966.28;5085358;28;19927;-76
2022/04/20 05:16:12;;;;;;;;;;;;;;;9.39;100.00;100977.56;5074964;28;19916;-76
2022/04/20 05:18:38;;;;;;;;;;;;;;;9.89;100.00;100989.28;5079016;28;19928;-77
2022/04/20 05:21:04;;;;;;;;;;;;;;;9.89;100.00;101000.69;5094567;28;20000;-77
2022/04/20 05:23:30;;;;;;;;;;;;;;;9.77;100.00;101023.91;5092772;28;19920;-75
2022/04/20 05:25:56;;;;;;;;;;;;;;;9.79;100.00;101021.28;5075814;28;19921;-76
2022/04/20 05:28:21;;;;;;;;;;;;;;;10.13;100.00;101017.44;5092956;28;19961;-77
2022/04/20 05:30:47;;;;;;;;;;;;;;;10.12;100.00;101026.19;5092691;28;20306;-78
2022/04/20 05:33:12;;;;;;;;;;;;;;;10.21;100.00;101037.06;5081103;28;19930;-76
2022/04/20 05:35:37;;;;;;;;;;;;;;;10.85;100.00;101028.19;5093580;28;19924;-77
2022/04/20 05:43:31;;;;;;;;;;;;;;;11.49;100.00;101079.72;5079118;28;19959;-78
2022/04/20 05:45:57;;;;;;;;;;;;;;;11.40;100.00;101087.28;5090033;28;19935;-77
2022/04/20 05:48:22;;;;;;;;;;;;;;;12.30;100.00;101095.69;5081752;28;19924;-77
2022/04/20 05:50:47;;;;;;;;;;;;;;;11.99;100.00;101126.34;5091416;28;20394;-79
2022/04/20 05:53:14;;;;;;;;;;;;;;;12.20;100.00;101164.03;5078843;28;19927;-76
2022/04/20 05:55:39;;;;;;;;;;;;;;;12.59;100.00;101267.47;5093246;28;19920;-78
2022/04/20 05:58:04;;;;;;;;;;;;;;;12.33;100.00;101363.38;5072462;28;19924;-75
2022/04/20 06:00:31;;;;;;;;;;;;;;;12.29;100.00;101426.59;5085534;28;19921;-78
2022/04/20 06:02:57;;;;;;;;;;;;;;;12.17;100.00;101458.72;5072406;28;19916;-77
2022/04/20 06:05:23;;;;;;;;;;;;;;;11.99;100.00;101480.00;5069406;28;19924;-77
2022/04/20 06:07:48;;;;;;;;;;;;;;;12.44;100.00;101505.53;5092693;28;19916;-77
2022/04/20 06:10:14;;;;;;;;;;;;;;;12.53;100.00;101543.75;5092963;28;19963;-77
2022/04/20 06:12:39;;;;;;;;;;;;;;;12.79;100.00;101541.22;5092085;28;19917;-78
2022/04/20 06:15:06;;;;;;;;;;;;;;;12.18;100.00;101548.56;5091635;28;20372;-78
2022/04/20 06:17:31;;;;;;;;;;;;;;;11.23;100.00;101510.19;5093058;28;19916;-77
2022/04/20 06:19:56;;;;;;;;;;;;;;;11.40;100.00;101513.56;5091769;28;19916;-78
2022/04/20 06:22:22;;;;;;;;;;;;;;;11.09;100.00;101502.59;5091688;28;19916;-76
2022/04/20 06:24:47;;;;;;;;;;;;;;;11.71;100.00;101504.31;5110731;28;19924;-77
2022/04/20 06:27:12;;;;;;;;;;;;;;;12.01;100.00;101531.13;5095224;28;19923;-77
2022/04/20 06:29:38;;;;;;;;;;;;;;;12.01;100.00;101542.59;5095818;28;19923;-78
2022/04/20 06:32:03;;;;;;;;;;;;;;;11.88;100.00;101547.25;5085161;28;19923;-77
2022/04/20 06:34:29;;;;;;;;;;;;;;;12.10;100.00;101549.97;5058337;28;19969;-78
2022/04/20 06:36:55;;;;;;;;;;;;;;;12.50;100.00;101564.78;5075166;28;19955;-78
2022/04/20 06:39:20;;;;;;;;;;;;;;;12.83;100.00;101576.59;5074980;28;19947;-78
2022/04/20 06:41:45;;;;;;;;;;;;;;;13.63;100.00;101600.75;5074545;28;19916;-77
2022/04/20 06:44:11;;;;;;;;;;;;;;;13.41;100.00;101628.19;5074817;28;20360;-78
2022/04/20 06:46:36;;;;;;;;;;;;;;;13.85;100.00;101642.09;5073502;28;19911;-75
2022/04/20 06:49:03;;;;;;;;;;;;;;;14.19;100.00;101649.44;5067276;28;20355;-75
2022/04/20 06:58:31;;;;;;;;;;;;;;;13.65;100.00;101659.91;5112843;28;19951;-76
2022/04/20 06:59:42;;;;;;;;;;;;;;;14.25;100.00;101658.47;5097635;28;19927;-77
2022/04/20 07:02:09;;;;;;;;;;;;;;;13.76;100.00;101657.66;5088608;28;19920;-76
2022/04/20 07:04:34;;;;;;;;;;;;;;;13.78;100.00;101661.25;5090748;28;19924;-76
2022/04/20 07:06:59;;;;;;;;;;;;;;;13.59;100.00;101663.22;5094603;28;20010;-77
2022/04/20 07:09:25;;;;;;;;;;;;;;;14.07;100.00;101661.38;5094101;28;19931;-75
2022/04/20 07:11:50;;;;;;;;;;;;;;;14.75;100.00;101668.97;5094187;28;19958;-75
2022/04/20 07:14:16;;;;;;;;;;;;;;;13.99;100.00;101675.25;5077089;28;19927;-77
2022/04/20 07:16:41;;;;;;;;;;;;;;;13.69;100.00;101674.13;5096088;27;19922;-77
2022/04/20 07:19:07;;;;;;;;;;;;;;;14.54;100.00;101672.66;5094205;28;20010;-77
2022/04/20 07:21:32;;;;;;;;;;;;;;;14.53;100.00;101677.06;5094791;28;19915;-76
2022/04/20 07:23:57;;;;;;;;;;;;;;;14.70;100.00;101679.41;5092891;28;19978;-76
2022/04/20 07:26:23;;;;;;;;;;;;;;;15.47;100.00;101683.50;5058014;28;19920;-77
2022/04/20 07:28:48;;;;;;;;;;;;;;;15.21;100.00;101688.94;5076091;28;19930;-75
2022/04/20 07:31:13;;;;;;;;;;;;;;;14.87;100.00;101686.16;5094896;28;20007;-76
2022/04/20 07:33:39;;;;;;;;;;;;;;;14.78;100.00;101682.31;5111718;28;19931;-76
2022/04/20 07:36:05;;;;;;;;;;;;;;;15.19;100.00;101690.66;5088053;28;19925;-76
2022/04/20 07:38:30;;;;;;;;;;;;;;;15.49;100.00;101690.69;5074143;28;19930;-77
2022/04/20 07:40:55;;;;;;;;;;;;;;;15.76;100.00;101695.88;5074386;28;19959;-77
2022/04/20 07:43:21;;;;;;;;;;;;;;;15.50;100.00;101694.22;5093426;28;19964;-76
2022/04/20 07:45:46;;;;;;;;;;;;;;;15.14;100.00;101684.31;5082806;28;19926;-77
2022/04/20 07:48:11;;;;;;;;;;;;;;;15.21;100.00;101702.19;5094662;28;19965;-76
2022/04/20 07:50:37;;;;;;;;;;;;;;;15.44;100.00;101684.31;5111149;28;19927;-76
2022/04/20 07:53:05;;;;;;;;;;;;;;;16.03;100.00;101694.84;5096427;28;19989;-76
2022/04/20 07:55:31;;;;;;;;;;;;;;;16.00;100.00;101694.78;5096873;28;19920;-76
2022/04/20 07:57:59;;;;;;;;;;;;;;;16.16;100.00;101698.75;5081120;28;19920;-76
2022/04/20 08:00:25;;;;;;;;;;;;;;;15.38;100.00;101698.31;5093355;28;20014;-76
2022/04/20 08:03:07;;;;;;;;;;;;;;;15.69;100.00;101690.34;5082917;28;19965;-77
2022/04/20 08:05:32;;;;;;;;;;;;;;;15.73;100.00;101705.50;5078824;28;19920;-76
2022/04/20 08:07:58;;;;;;;;;;;;;;;15.91;100.00;101698.09;5078724;27;20398;-77
2022/04/20 08:10:23;;;;;;;;;;;;;;;16.14;100.00;101704.03;5097240;28;19998;-77
2022/04/20 08:12:50;;;;;;;;;;;;;;;16.06;100.00;101704.66;5097135;28;19915;-76
2022/04/20 08:15:15;;;;;;;;;;;;;;;16.03;100.00;101705.47;5097485;28;20019;-76
2022/04/20 08:17:40;;;;;;;;;;;;;;;15.83;100.00;101702.28;5096952;28;20002;-76
2022/04/20 08:20:06;;;;;;;;;;;;;;;15.42;100.00;101704.63;5114980;28;19947;-77
2022/04/20 08:22:33;;;;;;;;;;;;;;;16.14;100.00;101705.78;5096557;28;19915;-76
2022/04/20 08:25:02;;;;;;;;;;;;;;;15.85;100.00;101715.59;5095807;28;19923;-76
2022/04/20 08:27:27;;;;;;;;;;;;;;;15.75;100.00;101709.09;5097378;28;19916;-77
2022/04/20 08:29:53;;;;;;;;;;;;;;;16.09;100.00;101707.41;5079707;28;19999;-76
2022/04/20 08:32:19;;;;;;;;;;;;;;;15.48;100.00;101710.09;5096836;28;20253;-76
2022/04/20 08:34:45;;;;;;;;;;;;;;;15.51;100.00;101711.97;5114937;28;19915;-76
2022/04/20 08:37:11;;;;;;;;;;;;;;;15.46;100.00;101716.22;5096840;28;19916;-76
2022/04/20 08:39:37;;;;;;;;;;;;;;;15.07;100.00;101715.97;5096292;28;20025;-76
2022/04/20 08:42:04;;;;;;;;;;;;;;;15.23;100.00;101727.03;5096321;28;20554;-76
2022/04/20 08:44:29;;;;;;;;;;;;;;;15.58;100.00;101713.91;5096621;28;19912;-76
2022/04/20 08:46:59;;;;;;;;;;;;;;;15.47;100.00;101715.38;5079141;28;20022;-75
2022/04/20 08:49:24;;;;;;;;;;;;;;;15.94;100.00;101714.13;5096976;28;19916;-76
2022/04/20 08:54:33;;;;;;;;;;;;;;;15.98;100.00;101710.66;5114288;28;19923;-77
2022/04/20 08:57:18;;;;;;;;;;;;;;;16.17;100.00;101707.63;5114520;28;19916;-76
2022/04/20 08:59:44;;;;;;;;;;;;;;;16.06;100.00;101704.66;5114465;28;20010;-76
2022/04/20 09:02:10;;;;;;;;;;;;;;;15.51;100.00;101730.53;5095923;28;19923;-76
2022/04/20 09:04:35;;;;;;;;;;;;;;;15.15;100.00;101720.59;5112954;28;19924;-76
2022/04/20 09:07:02;;;;;;;;;;;;;;;15.85;100.00;101716.50;5113833;28;20315;-76
2022/04/20 09:09:29;;;;;;;;;;;;;;;15.83;100.00;101714.66;5095983;28;19922;-77
2022/04/20 09:11:57;;;;;;;;;;;;;;;15.68;100.00;101720.41;5095964;28;19916;-76
2022/04/20 09:14:24;;;;;;;;;;;;;;;15.36;100.00;101715.94;5095713;28;19962;-75
2022/04/20 09:16:55;;;;;;;;;;;;;;;15.56;100.00;101728.91;5092616;28;20409;-75
2022/04/20 09:19:25;;;;;;;;;;;;;;;16.21;100.00;101713.06;5113987;28;19933;-75
2022/04/20 09:21:50;;;;;;;;;;;;;;;15.85;100.00;101726.22;5094841;28;20329;-75
2022/04/20 09:24:15;;;;;;;;;;;;;;;15.82;100.00;101719.09;5095533;28;19972;-76
2022/04/20 09:26:57;;;;;;;;;;;;;;;15.37;100.00;101716.84;5096079;28;20382;-76
2022/04/20 09:29:22;;;;;;;;;;;;;;;15.31;100.00;101709.59;5095387;28;19951;-76
2022/04/20 09:31:49;;;;;;;;;;;;;;;15.36;100.00;101705.31;5096118;28;19985;-75
2022/04/20 09:34:30;;;;;;;;;;;;;;;15.18;100.00;101712.72;5095896;28;20084;-75
2022/04/20 09:36:55;;;;;;;;;;;;;;;14.94;100.00;101695.19;5095713;28;20367;-76
2022/04/20 09:39:21;;;;;;;;;;;;;;;15.23;100.00;101701.41;5113922;28;19957;-75
2022/04/20 09:41:55;;;;;;;;;;;;;;;15.48;100.00;101701.25;5113758;28;19923;-74
2022/04/20 09:44:22;;;;;;;;;;;;;;;15.49;100.00;101706.59;5095811;28;19972;-76
2022/04/20 09:49:38;;;;;;;;;;;;;;;15.23;100.00;101697.88;5113834;28;20444;-75
2022/04/20 09:52:07;;;;;;;;;;;;;;;15.01;100.00;101697.19;5078664;28;19922;-76
2022/04/20 09:54:36;;;;;;;;;;;;;;;15.11;100.00;101692.19;5095444;28;19916;-75
2022/04/20 09:57:12;;;;;;;;;;;;;;;15.52;100.00;101684.53;5095194;28;20301;-76
2022/04/20 09:59:53;;;;;;;;;;;;;;;15.54;100.00;101693.47;5095648;28;19916;-75
2022/04/20 10:02:19;;;;;;;;;;;;;;;15.56;100.00;101689.09;5095648;28;19955;-76
2022/04/20 10:04:45;;;;;;;;;;;;;;;15.32;100.00;101686.59;5094711;28;20280;-77
2022/04/20 10:07:10;;;;;;;;;;;;;;;15.63;100.00;101691.09;5094993;28;19915;-76
2022/04/20 10:09:35;;;;;;;;;;;;;;;15.48;100.00;101685.34;5094150;28;19968;-76
2022/04/20 10:12:01;;;;;;;;;;;;;;;15.25;100.00;101686.41;5094920;28;20283;-76
2022/04/20 10:17:13;;;;;;;;;;;;;;;15.48;100.00;101678.25;5112993;28;20443;-76
2022/04/20 10:19:39;;;;;;;;;;;;;;;15.63;100.00;101683.13;5094725;28;19920;-75
2022/04/20 10:22:05;;;;;;;;;;;;;;;15.66;100.00;101676.97;5093639;28;19916;-75
2022/04/20 10:24:35;;;;;;;;;;;;;;;15.60;100.00;101670.66;5083909;28;19943;-73
2022/04/20 10:27:03;;;;;;;;;;;;;;;16.07;100.00;101678.16;5079819;28;19919;-73
2022/04/20 10:29:39;;;;;;;;;;;;;;;15.68;100.00;101681.47;5112283;28;19951;-75
2022/04/20 10:32:07;;;;;;;;;;;;;;;15.59;100.00;101683.88;5094497;28;19916;-75
2022/04/20 10:34:34;;;;;;;;;;;;;;;15.42;100.00;101678.06;5093908;28;20430;-76
2022/04/20 10:37:01;;;;;;;;;;;;;;;15.33;100.00;101683.09;5081250;28;19920;-75
2022/04/20 10:39:29;;;;;;;;;;;;;;;15.76;100.00;101682.59;5092664;28;19916;-76
2022/04/20 10:42:17;;;;;;;;;;;;;;;15.55;100.00;101684.63;5075936;28;19920;-76
2022/04/20 10:45:08;;;;;;;;;;;;;;;15.88;100.00;101673.19;5094040;28;20371;-76
2022/04/20 10:47:38;;;;;;;;;;;;;;;15.60;100.00;101673.31;5091507;28;19926;-75
2022/04/20 10:50:20;;;;;;;;;;;;;;;16.15;100.00;101667.72;5092268;28;19923;-77
2022/04/20 10:52:46;;;;;;;;;;;;;;;15.63;100.00;101669.84;5114596;27;19928;-76
2022/04/20 10:55:11;;;;;;;;;;;;;;;15.38;100.00;101671.78;5074348;28;20358;-76
2022/04/20 10:57:38;;;;;;;;;;;;;;;15.50;100.00;101663.25;5092408;28;19927;-75
2022/04/20 11:00:19;;;;;;;;;;;;;;;15.68;100.00;101654.94;5074164;28;19916;-76
2022/04/20 11:02:49;;;;;;;;;;;;;;;16.05;100.00;101653.31;5074390;28;20275;-76
2022/04/20 11:05:15;;;;;;;;;;;;;;;15.96;100.00;101646.00;5074418;28;20010;-75
2022/04/20 11:07:59;;;;;;;;;;;;;;;16.28;100.00;101648.59;5073320;28;19969;-74
2022/04/20 11:10:24;;;;;;;;;;;;;;;16.10;100.00;101635.72;5088725;28;20008;-77
2022/04/20 11:18:39;;;;;;;;;;;;;;;16.09;100.00;101639.22;5112667;28;19916;-75
2022/04/20 11:21:07;;;;;;;;;;;;;;;16.22;100.00;101631.56;5089804;28;19923;-74
2022/04/20 11:23:52;;;;;;;;;;;;;;;16.37;100.00;101625.75;5107690;28;20273;-75
2022/04/20 11:26:24;;;;;;;;;;;;;;;16.84;100.00;101634.84;5090946;28;19928;-74
2022/04/20 11:28:50;;;;;;;;;;;;;;;16.56;100.00;101638.59;5084312;28;19923;-76
2022/04/20 11:31:16;;;;;;;;;;;;;;;16.25;100.00;101634.31;5074760;28;20007;-74
2022/04/20 11:33:44;;;;;;;;;;;;;;;16.25;100.00;101631.66;5097099;28;19942;-75
2022/04/20 11:36:15;;;;;;;;;;;;;;;15.91;100.00;101626.38;5093109;28;20390;-76
2022/04/20 11:38:42;;;;;;;;;;;;;;;16.25;100.00;101613.06;5081169;28;20007;-78
2022/04/20 11:41:11;;;;;;;;;;;;;;;16.38;100.00;101623.13;5073844;28;19916;-77
2022/04/20 11:43:38;;;;;;;;;;;;;;;16.00;100.00;101617.72;5075736;28;19928;-75
2022/04/20 11:46:04;;;;;;;;;;;;;;;16.41;100.00;101611.69;5072430;28;19942;-76
2022/04/20 11:48:29;;;;;;;;;;;;;;;16.08;100.00;101621.50;5083375;28;20021;-76
2022/04/20 11:50:56;;;;;;;;;;;;;;;16.08;100.00;101596.69;5112788;28;20377;-76
2022/04/20 11:53:43;;;;;;;;;;;;;;;16.28;100.00;101599.84;5095319;28;20375;-76
2022/04/20 11:56:10;;;;;;;;;;;;;;;16.43;100.00;101605.53;5091469;28;19920;-74
2022/04/20 11:58:37;;;;;;;;;;;;;;;16.54;100.00;101588.94;5084333;28;19924;-76
2022/04/20 12:01:06;;;;;;;;;;;;;;;16.58;100.00;101588.13;5057821;28;19936;-73
2022/04/20 12:03:41;;;;;;;;;;;;;;;16.51;100.00;101593.34;5095157;28;20011;-75
2022/04/20 12:06:07;;;;;;;;;;;;;;;16.12;100.00;101580.84;5073339;28;19919;-78
2022/04/20 12:08:33;;;;;;;;;;;;;;;16.22;100.00;101583.75;5074007;28;19922;-74
2022/04/20 12:11:09;;;;;;;;;;;;;;;16.18;100.00;101576.56;5091673;28;19917;-76
2022/04/20 12:13:35;;;;;;;;;;;;;;;16.68;100.00;101585.72;5057420;28;19924;-76
2022/04/20 12:16:11;;;;;;;;;;;;;;;16.45;100.00;101582.56;5091906;28;19995;-76
2022/04/20 12:18:40;;;;;;;;;;;;;;;17.05;100.00;101575.91;5074326;28;19916;-77
2022/04/20 12:21:07;;;;;;;;;;;;;;;16.83;100.00;101579.84;5074113;28;20098;-77
2022/04/20 12:23:35;;;;;;;;;;;;;;;16.62;100.00;101580.25;5091931;28;20360;-76
2022/04/20 12:26:07;;;;;;;;;;;;;;;16.56;100.00;101581.88;5057272;28;19926;-77
2022/04/20 12:28:36;;;;;;;;;;;;;;;16.61;100.00;101573.16;5074405;28;20072;-78
2022/04/20 12:31:02;;;;;;;;;;;;;;;16.55;100.00;101565.06;5091998;28;20023;-76
2022/04/20 12:33:28;;;;;;;;;;;;;;;16.69;100.00;101560.03;5074030;28;20427;-78
2022/04/20 12:36:08;;;;;;;;;;;;;;;16.66;100.00;101565.28;5073700;28;19920;-77
2022/04/20 12:38:50;;;;;;;;;;;;;;;16.96;100.00;101562.41;5075427;28;19923;-73
2022/04/20 12:41:37;;;;;;;;;;;;;;;16.88;100.00;101547.19;5096108;28;20014;-77
2022/04/20 12:44:25;;;;;;;;;;;;;;;16.59;100.00;101558.91;5077149;28;19916;-75
2022/04/20 12:46:50;;;;;;;;;;;;;;;16.63;100.00;101550.16;5084942;28;19923;-77
2022/04/20 12:49:22;;;;;;;;;;;;;;;16.92;100.00;101546.34;5078162;28;19916;-77
2022/04/20 12:51:48;;;;;;;;;;;;;;;16.90;100.00;101542.78;5077512;28;19965;-77
2022/04/20 12:54:25;;;;;;;;;;;;;;;17.41;100.00;101536.69;5077581;28;20023;-76
2022/04/20 13:02:18;;;;;;;;;;;;;;;17.58;100.00;101539.69;5095953;28;19973;-77
2022/04/20 13:04:47;;;;;;;;;;;;;;;17.15;100.00;101534.44;5077577;28;19926;-77
2022/04/20 13:07:13;;;;;;;;;;;;;;;17.44;100.00;101526.09;5076898;28;20004;-75
2022/04/20 13:09:38;;;;;;;;;;;;;;;17.30;100.00;101527.63;5077345;28;19974;-77